Time;durP1;ratioP1;P1;durP2;ratioP2;P2;SDS_P1;SDS_P2;PMS_P1;PMS_P2;Temp;Humidity;BMP_temperature;BMP_pressure;BME280_temperature;BME280_humidity;BME280_pressure;Samples;Min_cycle;Max_cycle;Signal;HPM_P1;HPM_P2
2023/07/13 00:03:19;;;;;;;7.68;2.05;;;;;16.00;100962.00;;;;10093046;29;20705;-75
2023/07/13 00:08:21;;;;;;;8.23;2.15;;;;;16.00;100966.00;;;;10110899;29;20298;-77
2023/07/13 00:13:22;;;;;;;4.80;1.98;;;;;15.90;100966.00;;;;10110214;29;20631;-78
2023/07/13 00:18:24;;;;;;;7.20;2.05;;;;;15.90;100967.00;;;;10100473;29;20271;-78
2023/07/13 00:23:25;;;;;;;7.13;2.38;;;;;15.80;100969.00;;;;10098313;29;20211;-78
2023/07/13 00:28:27;;;;;;;4.78;2.03;;;;;15.80;100970.00;;;;10096170;29;20777;-78
2023/07/13 00:33:29;;;;;;;8.65;2.13;;;;;15.70;100969.00;;;;10094434;29;20240;-78
2023/07/13 00:38:31;;;;;;;10.68;3.35;;;;;15.70;100977.00;;;;10101050;29;20203;-77
2023/07/13 00:43:33;;;;;;;10.50;3.33;;;;;15.60;100966.00;;;;10103599;29;20212;-78
2023/07/13 00:48:36;;;;;;;7.60;2.40;;;;;15.60;100962.00;;;;10078038;29;20203;-78
2023/07/13 00:53:38;;;;;;;6.25;1.83;;;;;15.50;100971.00;;;;10101632;29;20590;-77
2023/07/13 00:58:41;;;;;;;7.63;2.60;;;;;15.50;100979.00;;;;10089840;29;20199;-78
2023/07/13 01:03:43;;;;;;;7.68;2.20;;;;;15.50;100988.00;;;;10102824;29;20626;-77
2023/07/13 01:08:45;;;;;;;7.30;3.10;;;;;15.50;100999.00;;;;10088379;29;20249;-78
2023/07/13 01:13:47;;;;;;;17.55;2.80;;;;;15.40;101002.00;;;;10117249;29;20224;-77
2023/07/13 01:18:48;;;;;;;9.65;1.88;;;;;15.40;101003.00;;;;10099747;29;20317;-78
2023/07/13 01:23:51;;;;;;;8.75;2.30;;;;;15.40;101011.00;;;;10112618;29;20706;-79
2023/07/13 01:28:52;;;;;;;10.37;2.87;;;;;15.30;101012.00;;;;10110002;29;20236;-78
2023/07/13 01:33:55;;;;;;;7.82;2.83;;;;;15.30;101019.00;;;;10109462;29;20438;-78
2023/07/13 01:38:56;;;;;;;10.63;2.43;;;;;15.20;101016.00;;;;10100399;29;20208;-77
2023/07/13 01:43:57;;;;;;;6.45;2.65;;;;;15.10;101024.00;;;;10101880;29;20550;-77
2023/07/13 01:48:59;;;;;;;11.45;2.42;;;;;15.10;101027.00;;;;10112484;29;20215;-78
2023/07/13 01:54:00;;;;;;;9.87;2.33;;;;;15.10;101022.00;;;;10102487;29;20693;-77
2023/07/13 01:59:02;;;;;;;11.80;2.70;;;;;15.10;101021.00;;;;10090960;29;20195;-78
2023/07/13 02:04:03;;;;;;;10.50;2.50;;;;;15.00;101030.00;;;;10105575;29;20766;-77
2023/07/13 02:09:07;;;;;;;9.23;3.33;;;;;15.00;101034.00;;;;10096013;29;20240;-78
2023/07/13 02:14:09;;;;;;;12.33;2.97;;;;;14.90;101039.00;;;;10116407;29;20211;-78
2023/07/13 02:19:10;;;;;;;10.30;2.87;;;;;14.90;101028.00;;;;10110308;29;20259;-78
2023/07/13 02:24:17;;;;;;;12.07;2.70;;;;;14.90;101026.00;;;;10125414;29;20210;-78
2023/07/13 02:29:18;;;;;;;8.17;2.63;;;;;14.80;101025.00;;;;10122308;29;20731;-77
2023/07/13 02:34:20;;;;;;;6.63;2.33;;;;;14.80;101034.00;;;;10118079;29;20223;-78
2023/07/13 02:39:21;;;;;;;8.60;2.70;;;;;14.80;101032.00;;;;10125665;29;20207;-78
2023/07/13 02:44:22;;;;;;;8.00;2.60;;;;;14.70;101029.00;;;;10118658;29;20548;-77
2023/07/13 02:49:24;;;;;;;14.70;3.90;;;;;14.80;101036.00;;;;10134765;29;20688;-78
2023/07/13 02:54:25;;;;;;;12.67;3.17;;;;;14.90;101043.00;;;;10129748;29;20219;-77
2023/07/13 02:59:27;;;;;;;8.83;2.60;;;;;14.90;101042.00;;;;10095455;29;20219;-77
2023/07/13 03:04:29;;;;;;;10.70;3.10;;;;;14.90;101037.00;;;;10131913;29;20215;-78
2023/07/13 03:09:32;;;;;;;15.10;3.40;;;;;14.90;101042.00;;;;10111684;29;20242;-78
2023/07/13 03:14:36;;;;;;;7.87;2.33;;;;;14.90;101045.00;;;;10123851;29;20225;-77
2023/07/13 03:19:40;;;;;;;11.60;3.33;;;;;14.90;101049.00;;;;10109481;29;20208;-77
2023/07/13 03:24:42;;;;;;;10.53;3.47;;;;;14.90;101056.00;;;;10129460;29;20214;-78
2023/07/13 03:29:44;;;;;;;8.40;2.53;;;;;15.00;101054.00;;;;10121161;29;20212;-79
2023/07/13 03:34:46;;;;;;;12.30;3.37;;;;;14.90;101048.00;;;;10099955;29;20276;-77
2023/07/13 03:39:48;;;;;;;11.07;2.70;;;;;14.90;101057.00;;;;10117898;29;20230;-78
2023/07/13 03:44:52;;;;;;;10.90;3.40;;;;;15.10;101057.00;;;;10135968;29;20650;-78
2023/07/13 03:49:54;;;;;;;10.95;3.80;;;;;15.30;101073.00;;;;10120801;29;20203;-79
2023/07/13 03:54:56;;;;;;;14.00;3.20;;;;;15.40;101082.00;;;;10135513;29;20246;-78
2023/07/13 03:59:57;;;;;;;16.00;3.10;;;;;15.60;101089.00;;;;10139077;29;20215;-78
2023/07/13 04:04:59;;;;;;;9.83;3.13;;;;;15.70;101091.00;;;;10136706;29;20211;-78
2023/07/13 04:10:00;;;;;;;14.60;3.67;;;;;15.80;101089.00;;;;10136070;29;20283;-78
2023/07/13 04:15:02;;;;;;;9.25;3.33;;;;;15.80;101096.00;;;;10136123;29;20239;-79
2023/07/13 04:20:04;;;;;;;12.57;3.42;;;;;15.90;101099.00;;;;10136256;29;20195;-78
2023/07/13 04:25:06;;;;;;;13.50;3.53;;;;;15.90;101105.00;;;;10136471;29;20209;-78
2023/07/13 04:30:08;;;;;;;14.40;3.22;;;;;16.00;101106.00;;;;10118977;29;20214;-78
2023/07/13 04:35:09;;;;;;;17.58;4.53;;;;;16.10;101115.00;;;;10135615;29;20230;-78
2023/07/13 04:40:12;;;;;;;13.18;3.50;;;;;16.20;101124.00;;;;10135567;29;20204;-78
2023/07/13 04:45:14;;;;;;;13.30;3.47;;;;;16.30;101125.00;;;;10134535;29;20583;-78
2023/07/13 04:50:20;;;;;;;9.82;3.38;;;;;16.40;101130.00;;;;10139431;29;20203;-78
2023/07/13 04:55:22;;;;;;;11.13;3.40;;;;;16.40;101141.00;;;;10140833;29;20233;-79
2023/07/13 05:00:23;;;;;;;13.70;3.88;;;;;16.50;101126.00;;;;10140868;29;20586;-78
2023/07/13 05:05:26;;;;;;;15.57;3.95;;;;;16.70;101138.00;;;;10142520;29;20195;-78
2023/07/13 05:10:28;;;;;;;13.65;3.80;;;;;16.90;101143.00;;;;10109809;29;20226;-79
2023/07/13 05:15:29;;;;;;;11.50;3.97;;;;;17.00;101142.00;;;;10127737;29;20626;-79
2023/07/13 05:20:30;;;;;;;21.10;4.57;;;;;17.10;101154.00;;;;10140442;29;20262;-78
2023/07/13 05:25:32;;;;;;;19.95;4.88;;;;;17.10;101151.00;;;;10140215;29;20207;-79
2023/07/13 05:30:33;;;;;;;14.15;4.22;;;;;17.20;101153.00;;;;10141057;29;20203;-78
2023/07/13 05:35:34;;;;;;;16.70;3.75;;;;;17.30;101146.00;;;;10140076;29;20231;-78
2023/07/13 05:40:36;;;;;;;14.23;3.72;;;;;17.60;101162.00;;;;10140265;29;20774;-78
2023/07/13 05:45:37;;;;;;;14.02;3.50;;;;;17.80;101161.00;;;;10138372;29;20199;-78
2023/07/13 05:50:39;;;;;;;13.30;3.70;;;;;17.90;101162.00;;;;10139578;29;20210;-78
2023/07/13 05:55:47;;;;;;;10.70;3.60;;;;;18.00;101166.00;;;;10139784;29;20211;-78
2023/07/13 06:00:48;;;;;;;23.40;4.90;;;;;18.00;101172.00;;;;10137694;29;20199;-78
2023/07/13 06:05:50;;;;;;;13.52;3.63;;;;;18.10;101169.00;;;;10138822;29;20207;-78
2023/07/13 06:10:51;;;;;;;9.30;3.33;;;;;18.20;101178.00;;;;10140722;29;20200;-77
2023/07/13 06:15:53;;;;;;;11.52;3.38;;;;;18.30;101185.00;;;;10140462;29;20231;-78
2023/07/13 06:20:54;;;;;;;12.55;4.18;;;;;18.40;101190.00;;;;10140483;29;20679;-78
2023/07/13 06:25:56;;;;;;;10.90;3.75;;;;;18.50;101199.00;;;;10138209;29;20210;-78
2023/07/13 06:30:58;;;;;;;104.97;14.85;;;;;18.80;101194.00;;;;10137242;29;20649;-78
2023/07/13 06:36:02;;;;;;;10.57;3.38;;;;;19.00;101194.00;;;;10125127;29;20223;-78
2023/07/13 06:41:04;;;;;;;32.97;6.20;;;;;19.20;101201.00;;;;10124375;29;20278;-78
2023/07/13 06:46:06;;;;;;;13.68;4.07;;;;;19.50;101207.00;;;;10137002;29;20574;-78
2023/07/13 06:51:08;;;;;;;17.05;3.85;;;;;19.80;101202.00;;;;10126871;29;20454;-79
2023/07/13 06:56:10;;;;;;;16.13;3.67;;;;;20.10;101202.00;;;;10128282;29;20231;-78
2023/07/13 07:01:12;;;;;;;14.25;3.47;;;;;20.50;101206.00;;;;10097359;29;20235;-78
2023/07/13 07:06:16;;;;;;;10.95;3.38;;;;;20.90;101201.00;;;;10123407;29;20619;-78
2023/07/13 07:11:22;;;;;;;14.02;3.80;;;;;21.20;101199.00;;;;10129485;29;20543;-79
2023/07/13 07:16:24;;;;;;;11.98;3.10;;;;;21.50;101200.00;;;;10100544;29;20599;-79
2023/07/13 07:21:27;;;;;;;9.88;3.00;;;;;21.50;101209.00;;;;10108164;29;20211;-79
2023/07/13 07:26:28;;;;;;;8.32;3.08;;;;;21.70;101204.00;;;;10127748;29;20223;-79
2023/07/13 07:31:49;;;;;;;8.05;3.85;;;;;21.90;101202.00;;;;10118658;29;20208;-78
2023/07/13 07:37:11;;;;;;;16.40;4.07;;;;;22.00;101208.00;;;;10121399;29;20267;-78
2023/07/13 07:42:16;;;;;;;11.55;3.40;;;;;21.90;101211.00;;;;10121138;29;20211;-82
2023/07/13 07:47:17;;;;;;;45.13;7.72;;;;;21.80;101211.00;;;;10132710;29;20663;-79
2023/07/13 07:52:19;;;;;;;15.43;4.22;;;;;22.20;101207.00;;;;10136129;29;20199;-79
2023/07/13 07:57:20;;;;;;;41.53;8.40;;;;;23.60;101215.00;;;;10121746;29;20599;-79
2023/07/13 08:02:42;;;;;;;14.90;2.97;;;;;24.70;101212.00;;;;10096679;29;20207;-79
2023/07/13 08:08:03;;;;;;;12.95;3.33;;;;;23.90;101222.00;;;;10117220;29;20239;-79
2023/07/13 08:13:05;;;;;;;13.43;3.85;;;;;23.60;101214.00;;;;10134289;29;20282;-79
2023/07/13 08:18:09;;;;;;;8.30;3.13;;;;;24.50;101207.00;;;;10136688;29;20570;-78
2023/07/13 08:23:10;;;;;;;10.32;2.80;;;;;24.10;101212.00;;;;10133692;29;20207;-79
2023/07/13 08:28:12;;;;;;;10.45;3.20;;;;;24.60;101216.00;;;;10147972;29;20198;-77
2023/07/13 08:33:13;;;;;;;10.35;3.40;;;;;24.90;101214.00;;;;10143862;29;20309;-78
2023/07/13 08:38:16;;;;;;;8.85;2.65;;;;;24.30;101223.00;;;;10150456;29;20207;-79
2023/07/13 08:43:24;;;;;;;8.10;2.90;;;;;24.50;101215.00;;;;10141875;29;20282;-78
2023/07/13 08:48:30;;;;;;;10.07;2.95;;;;;25.60;101213.00;;;;10149884;29;20278;-79
2023/07/13 08:53:49;;;;;;;8.70;2.40;;;;;26.60;101215.00;;;;10164113;29;20218;-80
2023/07/13 08:59:00;;;;;;;8.85;2.63;;;;;26.40;101222.00;;;;10133845;29;20219;-79
2023/07/13 09:04:12;;;;;;;7.55;3.17;;;;;24.80;101217.00;;;;10132603;29;20246;-78
2023/07/13 09:09:29;;;;;;;7.18;2.50;;;;;25.50;101219.00;;;;10122942;29;20324;-78
2023/07/13 09:14:43;;;;;;;5.75;2.05;;;;;27.20;101211.00;;;;10106028;29;20223;-79
2023/07/13 09:19:53;;;;;;;8.43;2.30;;;;;27.10;101221.00;;;;10134448;29;20567;-79
2023/07/13 09:25:01;;;;;;;7.75;2.20;;;;;26.60;101205.00;;;;10122670;29;20619;-79
2023/07/13 09:30:22;;;;;;;4.95;2.10;;;;;26.80;101209.00;;;;10131887;29;20726;-78
2023/07/13 09:35:29;;;;;;;6.93;2.20;;;;;28.30;101212.00;;;;10137465;29;20586;-79
2023/07/13 09:40:42;;;;;;;8.55;2.65;;;;;28.30;101211.00;;;;10139027;29;20696;-78
2023/07/13 09:45:47;;;;;;;7.68;2.22;;;;;27.70;101208.00;;;;10128732;29;20718;-79
2023/07/13 09:50:48;;;;;;;6.70;2.47;;;;;29.80;101216.00;;;;10118751;29;20200;-79
2023/07/13 09:55:50;;;;;;;7.47;2.38;;;;;28.10;101218.00;;;;10127840;29;20230;-78
2023/07/13 10:01:02;;;;;;;7.63;2.40;;;;;27.40;101225.00;;;;10116319;29;20334;-78
2023/07/13 10:06:19;;;;;;;5.97;2.13;;;;;28.50;101213.00;;;;10137256;29;20286;-78
2023/07/13 10:11:29;;;;;;;4.53;1.77;;;;;28.70;101220.00;;;;10134383;29;20589;-79
2023/07/13 10:16:32;;;;;;;7.47;2.05;;;;;28.90;101207.00;;;;10104713;29;20227;-80
2023/07/13 10:21:39;;;;;;;6.43;1.88;;;;;30.70;101223.00;;;;10132012;29;20199;-79
2023/07/13 10:26:48;;;;;;;5.93;2.00;;;;;30.90;101211.00;;;;10130317;29;20237;-79
2023/07/13 10:31:50;;;;;;;3.58;1.77;;;;;31.70;101217.00;;;;10126185;29;20203;-80
2023/07/13 10:36:52;;;;;;;4.50;1.70;;;;;31.30;101230.00;;;;10113407;29;20252;-79
2023/07/13 10:41:59;;;;;;;8.38;1.92;;;;;29.40;101231.00;;;;10112544;29;20288;-78
2023/07/13 10:47:13;;;;;;;8.32;2.00;;;;;28.00;101237.00;;;;10123240;29;20208;-79
2023/07/13 10:52:46;;;;;;;4.63;1.95;;;;;26.50;101243.00;;;;10122748;29;20670;-80
2023/07/13 10:57:47;;;;;;;6.68;2.05;;;;;26.20;101240.00;;;;10136718;29;20234;-80
2023/07/13 11:02:57;;;;;;;8.13;1.60;;;;;26.00;101235.00;;;;10130773;29;20298;-81
2023/07/13 11:08:32;;;;;;;5.32;2.50;;;;;24.10;101253.00;;;;10133365;29;20207;-78
2023/07/13 11:13:47;;;;;;;5.78;2.42;;;;;21.90;101247.00;;;;10109486;29;20216;-78
2023/07/13 11:19:02;;;;;;;6.00;2.50;;;;;23.80;101237.00;;;;10128090;29;20214;-81
2023/07/13 11:24:03;;;;;;;6.90;2.33;;;;;25.40;101238.00;;;;10139851;29;20254;-80
2023/07/13 11:29:14;;;;;;;5.38;2.00;;;;;25.00;101236.00;;;;10140105;29;20207;-81
2023/07/13 11:34:27;;;;;;;5.18;2.17;;;;;24.50;101236.00;;;;10113324;29;20287;-82
2023/07/13 11:39:33;;;;;;;5.57;1.88;;;;;24.80;101239.00;;;;10131710;29;20216;-85
2023/07/13 11:44:35;;;;;;;4.53;1.90;;;;;25.70;101239.00;;;;10128078;29;20286;-81
2023/07/13 11:49:48;;;;;;;7.70;2.50;;;;;26.40;101244.00;;;;10127317;29;20208;-83
2023/07/13 11:54:55;;;;;;;6.13;1.75;;;;;25.10;101247.00;;;;10131794;29;20243;-83
2023/07/13 11:59:59;;;;;;;3.92;2.28;;;;;23.90;101256.00;;;;10133103;29;20298;-82
2023/07/13 12:05:03;;;;;;;7.00;2.40;;;;;22.00;101286.00;;;;10122801;29;20211;-79
2023/07/13 12:10:23;;;;;;;6.38;1.95;;;;;20.40;101280.00;;;;10129174;29;20207;-80
2023/07/13 12:15:33;;;;;;;6.50;2.20;;;;;19.70;101284.00;;;;10121908;29;20619;-81
2023/07/13 12:20:38;;;;;;;4.82;2.10;;;;;19.50;101297.00;;;;10131971;29;20246;-82
2023/07/13 12:25:39;;;;;;;3.85;2.00;;;;;19.70;101305.00;;;;10125418;29;20211;-77
2023/07/13 12:30:40;;;;;;;3.80;1.50;;;;;19.40;101306.00;;;;10133531;29;20286;-81
2023/07/13 12:35:46;;;;;;;3.83;1.70;;;;;19.20;101307.00;;;;10132247;29;20581;-83
2023/07/13 12:40:52;;;;;;;4.05;1.92;;;;;18.80;101332.00;;;;10130347;29;20211;-81
2023/07/13 12:45:59;;;;;;;3.28;1.95;;;;;17.80;101340.00;;;;10145391;29;20196;-76
2023/07/13 12:51:01;;;;;;;4.30;2.03;;;;;17.60;101342.00;;;;10131881;29;20207;-78
2023/07/13 12:56:03;;;;;;;5.93;2.28;;;;;18.00;101343.00;;;;10120513;29;20235;-76
2023/07/13 13:01:05;;;;;;;4.85;2.15;;;;;18.30;101329.00;;;;10117919;29;20208;-78
2023/07/13 13:06:18;;;;;;;5.55;2.63;;;;;18.60;101337.00;;;;10128922;29;20682;-77
2023/07/13 13:11:22;;;;;;;5.65;2.83;;;;;18.80;101327.00;;;;10111876;29;20268;-78
2023/07/13 13:16:34;;;;;;;9.18;3.13;;;;;19.40;101326.00;;;;10102316;29;20316;-78
2023/07/13 13:21:35;;;;;;;7.25;3.08;;;;;19.90;101322.00;;;;10102209;29;20193;-78
2023/07/13 13:26:37;;;;;;;4.07;2.72;;;;;20.40;101319.00;;;;10102407;29;20212;-78
2023/07/13 13:31:39;;;;;;;4.93;2.33;;;;;20.50;101314.00;;;;10125825;29;20208;-78
2023/07/13 13:36:41;;;;;;;4.13;2.35;;;;;20.20;101308.00;;;;10120426;29;20299;-78
2023/07/13 13:41:42;;;;;;;3.08;1.98;;;;;19.80;101307.00;;;;10114313;29;20196;-78
2023/07/13 13:46:53;;;;;;;4.13;2.05;;;;;19.90;101306.00;;;;10129152;29;20200;-77
2023/07/13 13:51:56;;;;;;;4.85;2.20;;;;;20.80;101300.00;;;;10132659;29;20569;-81
2023/07/13 13:56:58;;;;;;;4.93;1.90;;;;;22.50;101289.00;;;;10140512;29;20268;-83
2023/07/13 14:02:00;;;;;;;3.65;2.05;;;;;23.60;101285.00;;;;10134255;29;20207;-81
2023/07/13 14:07:02;;;;;;;5.05;2.08;;;;;25.00;101281.00;;;;10140493;29;20202;-81
2023/07/13 14:12:05;;;;;;;4.95;2.10;;;;;25.30;101288.00;;;;10131817;29;20199;-80
2023/07/13 14:17:28;;;;;;;2.83;1.77;;;;;25.80;101290.00;;;;10129716;29;20299;-84
2023/07/13 14:22:29;;;;;;;1.77;1.50;;;;;25.80;101289.00;;;;10123544;29;20217;-83
2023/07/13 14:27:30;;;;;;;6.40;1.98;;;;;25.80;101276.00;;;;10141945;29;20203;-83
2023/07/13 14:32:31;;;;;;;2.92;1.73;;;;;26.60;101274.00;;;;10138995;29;20211;-84
2023/07/13 14:37:34;;;;;;;3.83;1.92;;;;;27.10;101260.00;;;;10128537;29;20249;-80
2023/07/13 14:42:35;;;;;;;4.68;1.80;;;;;26.90;101247.00;;;;10121079;29;20244;-82
2023/07/13 14:47:37;;;;;;;6.47;1.73;;;;;27.10;101249.00;;;;10130635;29;20673;-81
2023/07/13 14:52:38;;;;;;;2.35;1.88;;;;;26.70;101259.00;;;;10105150;29;20219;-82
2023/07/13 14:57:39;;;;;;;2.67;1.55;;;;;26.10;101253.00;;;;10099321;29;20762;-81
2023/07/13 15:02:43;;;;;;;4.35;1.73;;;;;26.10;101234.00;;;;10110418;29;20215;-81
2023/07/13 15:07:45;;;;;;;5.03;1.80;;;;;26.40;101240.00;;;;10099640;29;20637;-81
2023/07/13 15:12:47;;;;;;;2.10;1.45;;;;;26.30;101244.00;;;;10131484;29;20223;-80
2023/07/13 15:17:48;;;;;;;4.38;1.50;;;;;26.90;101241.00;;;;10108729;29;20219;-82
2023/07/13 15:22:50;;;;;;;4.55;1.55;;;;;27.00;101231.00;;;;10137663;29;20219;-75
2023/07/13 15:27:53;;;;;;;3.42;1.48;;;;;27.00;101231.00;;;;10132206;29;20737;-74
2023/07/13 15:32:57;;;;;;;5.05;1.67;;;;;27.00;101220.00;;;;10125771;29;20545;-73
2023/07/13 15:37:59;;;;;;;2.33;1.55;;;;;28.10;101216.00;;;;10112039;29;20264;-74
2023/07/13 15:43:00;;;;;;;4.50;1.60;;;;;28.80;101216.00;;;;10158057;29;20575;-82
2023/07/13 15:48:01;;;;;;;3.53;1.77;;;;;26.60;101216.00;;;;10175919;29;20206;-75
2023/07/13 15:53:03;;;;;;;4.88;1.33;;;;;25.60;101207.00;;;;10134533;29;20290;-75
2023/07/13 15:58:04;;;;;;;4.82;1.70;;;;;25.50;101206.00;;;;10134344;29;20210;-76
2023/07/13 16:03:06;;;;;;;2.78;1.70;;;;;25.50;101205.00;;;;10134147;29;20211;-75
2023/07/13 16:08:22;;;;;;;3.42;1.50;;;;;25.00;101209.00;;;;10134262;29;20332;-75
2023/07/13 16:13:24;;;;;;;5.30;1.92;;;;;24.90;101207.00;;;;10129021;29;20570;-75
2023/07/13 16:18:26;;;;;;;4.63;1.88;;;;;24.80;101211.00;;;;10143204;29;20207;-75
2023/07/13 16:23:31;;;;;;;5.50;3.35;;;;;24.50;101202.00;;;;10133877;29;20207;-77
2023/07/13 16:28:34;;;;;;;3.42;1.75;;;;;25.10;101200.00;;;;10127511;29;20243;-74
2023/07/13 16:33:35;;;;;;;3.78;1.65;;;;;25.20;101199.00;;;;10132669;29;20204;-76
2023/07/13 16:38:36;;;;;;;3.95;2.00;;;;;24.70;101208.00;;;;10130264;29;20218;-75
2023/07/13 16:43:39;;;;;;;4.13;1.67;;;;;24.40;101205.00;;;;10136626;29;20647;-76
2023/07/13 16:48:41;;;;;;;3.35;1.60;;;;;24.60;101201.00;;;;10140930;29;20239;-75
2023/07/13 16:53:44;;;;;;;4.97;1.70;;;;;24.60;101203.00;;;;10140391;29;20256;-75
2023/07/13 16:58:46;;;;;;;1.95;1.30;;;;;24.60;101190.00;;;;10140818;29;20208;-75
2023/07/13 17:03:48;;;;;;;3.05;1.52;;;;;24.70;101199.00;;;;10115443;29;20199;-76
2023/07/13 17:08:53;;;;;;;2.40;1.38;;;;;24.50;101200.00;;;;10139641;29;20216;-76
2023/07/13 17:13:54;;;;;;;3.45;1.50;;;;;24.00;101199.00;;;;10138318;29;20224;-76
2023/07/13 17:18:57;;;;;;;3.83;1.52;;;;;24.00;101200.00;;;;10138915;29;20219;-76
2023/07/13 17:23:58;;;;;;;2.30;1.23;;;;;24.20;101197.00;;;;10127143;29;20242;-76
2023/07/13 17:28:59;;;;;;;3.80;1.75;;;;;24.20;101198.00;;;;10174033;29;20203;-76
2023/07/13 17:34:03;;;;;;;4.50;1.83;;;;;24.00;101207.00;;;;10139848;29;20310;-76
2023/07/13 17:39:17;;;;;;;2.95;1.63;;;;;23.80;101204.00;;;;10134661;29;20214;-76
2023/07/13 17:44:19;;;;;;;2.88;1.83;;;;;23.70;101202.00;;;;10152364;29;20277;-77
2023/07/13 17:49:31;;;;;;;2.78;1.40;;;;;23.80;101200.00;;;;10133701;29;20686;-76
2023/07/13 17:54:33;;;;;;;4.75;1.85;;;;;23.80;101197.00;;;;10136252;29;20379;-76
2023/07/13 17:59:34;;;;;;;3.97;1.55;;;;;23.70;101203.00;;;;10116996;29;20217;-76
2023/07/13 18:04:37;;;;;;;2.33;1.58;;;;;23.60;101215.00;;;;10134933;29;20270;-76
2023/07/13 18:09:40;;;;;;;2.10;1.40;;;;;23.50;101209.00;;;;10136882;29;20199;-76
2023/07/13 18:14:41;;;;;;;4.75;1.60;;;;;23.00;101211.00;;;;10120074;29;20223;-76
2023/07/13 18:19:46;;;;;;;3.60;1.80;;;;;22.60;101220.00;;;;10139322;29;20274;-76
2023/07/13 18:24:47;;;;;;;5.57;1.48;;;;;22.40;101223.00;;;;10106113;29;20662;-76
2023/07/13 18:29:48;;;;;;;3.22;1.50;;;;;22.40;101217.00;;;;10100260;29;20200;-76
2023/07/13 18:34:52;;;;;;;3.75;1.60;;;;;22.40;101216.00;;;;10136387;29;20219;-76
2023/07/13 18:39:53;;;;;;;4.18;1.60;;;;;22.10;101227.00;;;;10138556;29;20204;-76
2023/07/13 18:44:56;;;;;;;4.82;1.50;;;;;21.90;101225.00;;;;10139741;29;20211;-76
2023/07/13 18:49:58;;;;;;;2.92;2.05;;;;;21.70;101238.00;;;;10138362;29;20700;-76
2023/07/13 18:54:59;;;;;;;3.90;1.83;;;;;21.60;101235.00;;;;10122121;29;20551;-76
2023/07/13 19:00:04;;;;;;;3.15;1.80;;;;;21.40;101232.00;;;;10129987;29;20237;-76
2023/07/13 19:05:19;;;;;;;6.10;1.52;;;;;21.20;101231.00;;;;10153119;29;20234;-76
2023/07/13 19:10:23;;;;;;;4.82;1.33;;;;;20.90;101238.00;;;;10135044;29;20211;-76
2023/07/13 19:15:30;;;;;;;2.88;1.38;;;;;20.60;101239.00;;;;10134697;29;20228;-76
2023/07/13 19:20:31;;;;;;;4.70;1.27;;;;;20.60;101240.00;;;;10102451;29;20624;-76
2023/07/13 19:25:33;;;;;;;2.08;1.20;;;;;20.50;101243.00;;;;10104474;29;20207;-76
2023/07/13 19:30:34;;;;;;;2.75;1.52;;;;;20.50;101248.00;;;;10130860;29;20582;-76
2023/07/13 19:35:36;;;;;;;4.35;1.42;;;;;20.50;101251.00;;;;10135892;29;20717;-77
2023/07/13 19:40:38;;;;;;;2.38;1.05;;;;;20.40;101255.00;;;;10135017;29;20216;-77
2023/07/13 19:45:39;;;;;;;4.82;1.35;;;;;20.30;101249.00;;;;10135660;29;20578;-76
2023/07/13 19:50:41;;;;;;;3.45;1.52;;;;;20.30;101261.00;;;;10108124;29;20674;-76
2023/07/13 19:55:42;;;;;;;3.00;1.73;;;;;20.20;101264.00;;;;10113854;29;20215;-76
2023/07/13 20:00:44;;;;;;;2.55;1.08;;;;;20.20;101268.00;;;;10135717;29;20614;-76
2023/07/13 20:05:46;;;;;;;2.80;1.20;;;;;20.20;101272.00;;;;10134918;29;20222;-74
2023/07/13 20:10:51;;;;;;;2.60;1.48;;;;;20.10;101288.00;;;;10143443;29;20274;-74
2023/07/13 20:15:52;;;;;;;1.33;1.08;;;;;20.00;101298.00;;;;10161471;29;20215;-74
2023/07/13 20:20:54;;;;;;;3.00;1.13;;;;;20.00;101297.00;;;;10134179;29;20210;-74
2023/07/13 20:25:57;;;;;;;5.40;1.42;;;;;19.90;101296.00;;;;10134185;29;20264;-75
2023/07/13 20:30:59;;;;;;;5.50;1.50;;;;;19.90;101297.00;;;;10134758;29;20211;-73
2023/07/13 20:36:07;;;;;;;2.33;1.25;;;;;19.80;101301.00;;;;10133554;29;20231;-78
2023/07/13 20:41:12;;;;;;;2.08;1.27;;;;;19.80;101298.00;;;;10134657;29;20719;-79
2023/07/13 20:46:16;;;;;;;2.72;1.15;;;;;19.70;101313.00;;;;10111972;29;20211;-80
2023/07/13 20:51:19;;;;;;;3.45;1.25;;;;;19.70;101310.00;;;;10121271;29;20574;-78
2023/07/13 20:56:23;;;;;;;2.50;1.20;;;;;19.60;101306.00;;;;10114909;29;20231;-74
2023/07/13 21:01:34;;;;;;;2.22;1.17;;;;;19.50;101307.00;;;;10129917;29;20219;-78
2023/07/13 21:06:36;;;;;;;3.40;1.35;;;;;19.40;101313.00;;;;10124546;29;20685;-79
2023/07/13 21:11:37;;;;;;;3.65;1.30;;;;;19.30;101310.00;;;;10134255;29;20757;-76
2023/07/13 21:16:39;;;;;;;4.88;1.60;;;;;19.10;101302.00;;;;10134476;29;20555;-75
2023/07/13 21:21:50;;;;;;;5.20;1.38;;;;;19.00;101307.00;;;;10133652;29;20548;-76
2023/07/13 21:26:52;;;;;;;4.80;1.50;;;;;18.80;101310.00;;;;10134865;29;20236;-78
2023/07/13 21:31:53;;;;;;;3.40;1.27;;;;;18.60;101317.00;;;;10139050;29;20595;-78
2023/07/13 21:36:58;;;;;;;2.47;1.40;;;;;18.50;101319.00;;;;10139688;29;20211;-79
2023/07/13 21:42:01;;;;;;;5.38;1.35;;;;;18.40;101319.00;;;;10130325;29;20283;-76
2023/07/13 21:47:02;;;;;;;3.78;1.40;;;;;18.30;101329.00;;;;10109203;29;20241;-73
2023/07/13 21:52:16;;;;;;;5.78;1.40;;;;;18.30;101332.00;;;;10123888;29;20203;-77
2023/07/13 21:57:18;;;;;;;2.90;1.50;;;;;18.20;101331.00;;;;10139185;29;20231;-76
2023/07/13 22:02:19;;;;;;;2.55;1.48;;;;;18.30;101329.00;;;;10139730;29;20199;-78
2023/07/13 22:07:21;;;;;;;2.85;1.90;;;;;18.30;101330.00;;;;10139480;29;20203;-78
2023/07/13 22:12:22;;;;;;;2.63;1.35;;;;;18.30;101329.00;;;;10137323;29;20203;-76
2023/07/13 22:17:24;;;;;;;4.15;1.55;;;;;18.30;101330.00;;;;10117708;29;20231;-77
2023/07/13 22:22:26;;;;;;;2.95;1.50;;;;;18.30;101323.00;;;;10093828;29;20310;-76
2023/07/13 22:27:29;;;;;;;9.25;1.58;;;;;18.30;101323.00;;;;10138724;29;20279;-76
2023/07/13 22:32:30;;;;;;;4.85;1.38;;;;;18.20;101323.00;;;;10139325;29;20227;-77
2023/07/13 22:37:31;;;;;;;3.83;1.63;;;;;18.10;101319.00;;;;10139891;29;20229;-76
2023/07/13 22:42:33;;;;;;;4.40;1.65;;;;;17.90;101319.00;;;;10136708;29;20559;-77
2023/07/13 22:47:34;;;;;;;4.68;2.00;;;;;17.80;101319.00;;;;10138212;29;20204;-76
2023/07/13 22:52:36;;;;;;;4.35;1.80;;;;;17.70;101316.00;;;;10137342;29;20219;-76
2023/07/13 22:57:37;;;;;;;5.63;1.85;;;;;17.60;101310.00;;;;10126021;29;20305;-76
2023/07/13 23:02:38;;;;;;;7.40;2.00;;;;;17.40;101312.00;;;;10111857;29;20207;-74
2023/07/13 23:07:40;;;;;;;2.67;1.52;;;;;17.30;101306.00;;;;10123049;29;20208;-74
2023/07/13 23:12:42;;;;;;;2.72;1.65;;;;;17.30;101298.00;;;;10134950;29;20318;-77
2023/07/13 23:17:48;;;;;;;4.45;2.00;;;;;17.30;101290.00;;;;10108953;29;20560;-77
2023/07/13 23:22:50;;;;;;;4.30;2.30;;;;;17.30;101296.00;;;;10132955;29;20266;-76
2023/07/13 23:27:53;;;;;;;6.93;2.10;;;;;17.20;101294.00;;;;10125752;29;20218;-77
2023/07/13 23:33:00;;;;;;;4.60;2.13;;;;;17.10;101298.00;;;;10134673;29;20214;-74
2023/07/13 23:38:01;;;;;;;3.75;2.17;;;;;17.00;101286.00;;;;10110897;29;20227;-77
2023/07/13 23:43:02;;;;;;;5.15;2.13;;;;;17.00;101288.00;;;;10126209;29;20218;-77
2023/07/13 23:48:09;;;;;;;4.25;1.80;;;;;16.90;101293.00;;;;10120423;29;20578;-74
2023/07/13 23:53:12;;;;;;;3.53;2.00;;;;;16.80;101291.00;;;;10111603;29;20206;-76
2023/07/13 23:58:14;;;;;;;5.40;2.08;;;;;16.80;101282.00;;;;10130427;29;20251;-76
